Time;durP1;ratioP1;P1;durP2;ratioP2;P2;SDS_P1;SDS_P2;PMS_P1;PMS_P2;Temp;Humidity;BMP_temperature;BMP_pressure;BME280_temperature;BME280_humidity;BME280_pressure;Samples;Min_cycle;Max_cycle;Signal;HPM_P1;HPM_P2
2023/08/11 00:00:25;;;;;;;2.58;2.38;;;23.70;58.70;24.80;101250.00;;;;5009644;28;20215;-53
2023/08/11 00:02:51;;;;;;;2.75;2.55;;;23.70;58.80;24.70;101248.00;;;;5008911;28;20179;-52
2023/08/11 00:05:17;;;;;;;3.00;2.40;;;23.70;58.90;24.70;101253.00;;;;5008926;28;20263;-53
2023/08/11 00:07:50;;;;;;;3.20;2.55;;;23.70;59.00;24.70;101252.00;;;;5009508;28;20184;-52
2023/08/11 00:10:17;;;;;;;3.17;2.55;;;23.70;59.00;24.70;101253.00;;;;5011610;28;20277;-52
2023/08/11 00:12:43;;;;;;;3.45;2.42;;;23.60;59.00;24.70;101257.00;;;;5008956;28;20198;-51
2023/08/11 00:15:09;;;;;;;2.60;2.40;;;23.60;58.90;24.70;101252.00;;;;5008956;28;20180;-51
2023/08/11 00:17:34;;;;;;;2.47;2.25;;;23.60;59.00;24.70;101250.00;;;;5008647;28;20191;-51
2023/08/11 00:20:00;;;;;;;2.42;2.22;;;23.60;59.30;24.60;101246.00;;;;5008417;28;20725;-52
2023/08/11 00:22:26;;;;;;;3.20;2.80;;;23.60;59.10;24.60;101248.00;;;;5008879;28;20586;-51
2023/08/11 00:24:52;;;;;;;2.70;2.50;;;23.60;59.30;24.60;101246.00;;;;5008368;28;20172;-54
2023/08/11 00:27:19;;;;;;;2.40;2.20;;;23.60;59.20;24.60;101244.00;;;;5008610;28;20270;-51
2023/08/11 00:29:45;;;;;;;3.53;2.67;;;23.60;59.20;24.60;101238.00;;;;5008299;28;20605;-51
2023/08/11 00:32:11;;;;;;;3.20;2.78;;;23.60;59.20;24.60;101235.00;;;;5008492;28;20207;-51
2023/08/11 00:34:37;;;;;;;2.88;2.50;;;23.60;59.60;24.60;101245.00;;;;5008379;28;20234;-52
2023/08/11 00:37:03;;;;;;;2.90;2.67;;;23.60;59.40;24.60;101242.00;;;;5008389;28;20191;-52
2023/08/11 00:39:29;;;;;;;2.60;2.40;;;23.60;59.50;24.50;101239.00;;;;5008002;28;20203;-51
2023/08/11 00:41:55;;;;;;;2.92;2.30;;;23.50;59.20;24.50;101228.00;;;;5008094;28;20210;-51
2023/08/11 00:44:21;;;;;;;2.83;2.53;;;23.50;59.20;24.50;101240.00;;;;5008359;28;20688;-51
2023/08/11 00:46:47;;;;;;;2.80;2.50;;;23.50;59.20;24.50;101238.00;;;;5006821;28;20270;-51
2023/08/11 00:49:14;;;;;;;2.83;2.42;;;23.50;59.40;24.50;101232.00;;;;5007247;28;20575;-52
2023/08/11 00:51:39;;;;;;;4.23;3.10;;;23.50;59.60;24.40;101215.00;;;;5008344;28;20570;-51
2023/08/11 00:54:06;;;;;;;3.47;2.97;;;23.50;60.00;24.40;101239.00;;;;5007144;28;20179;-52
2023/08/11 00:56:32;;;;;;;2.90;2.70;;;23.50;60.20;24.40;101226.00;;;;5007087;28;20179;-52
2023/08/11 00:58:57;;;;;;;4.33;3.10;;;23.50;60.40;24.40;101228.00;;;;5006818;28;20677;-52
2023/08/11 01:01:24;;;;;;;3.95;3.20;;;23.40;60.60;24.40;101228.00;;;;5009536;28;20677;-51
2023/08/11 01:03:50;;;;;;;3.50;2.95;;;23.40;60.70;24.30;101220.00;;;;5011694;28;20210;-52
2023/08/11 01:06:39;;;;;;;3.45;3.15;;;23.40;60.80;24.30;101214.00;;;;5011857;28;20250;-52
2023/08/11 01:09:15;;;;;;;5.70;3.10;;;23.40;61.20;24.30;101208.00;;;;5010599;28;20367;-52
2023/08/11 01:12:09;;;;;;;3.30;3.00;;;23.40;61.20;24.30;101213.00;;;;5010272;28;20269;-52
2023/08/11 01:15:15;;;;;;;3.10;2.90;;;23.40;61.10;24.20;101213.00;;;;5010772;28;20681;-52
2023/08/11 01:17:41;;;;;;;3.22;2.85;;;23.40;61.30;24.10;101219.00;;;;5010243;28;20210;-51
2023/08/11 01:20:10;;;;;;;3.37;3.07;;;23.30;61.60;24.20;101211.00;;;;5010035;28;20183;-52
2023/08/11 01:22:38;;;;;;;3.00;2.80;;;23.30;61.50;24.20;101220.00;;;;5011379;28;20224;-51
2023/08/11 01:25:06;;;;;;;3.03;2.83;;;23.30;61.60;24.20;101217.00;;;;5010273;28;20199;-51
2023/08/11 01:27:47;;;;;;;4.87;3.07;;;23.30;61.70;24.20;101229.00;;;;5010361;28;20211;-50
2023/08/11 01:30:13;;;;;;;2.90;2.70;;;23.30;61.70;24.10;101215.00;;;;4993570;28;20623;-51
2023/08/11 01:32:39;;;;;;;3.10;2.90;;;23.30;61.70;24.10;101224.00;;;;5011352;28;20652;-50
2023/08/11 01:35:06;;;;;;;3.33;2.97;;;23.30;61.70;24.10;101218.00;;;;5011073;28;20188;-51
2023/08/11 01:37:32;;;;;;;3.27;2.70;;;23.30;61.60;24.10;101222.00;;;;5011253;28;20188;-51
2023/08/11 01:39:58;;;;;;;3.10;2.80;;;23.30;61.70;24.10;101221.00;;;;5010772;28;20179;-51
2023/08/11 01:42:24;;;;;;;3.70;3.40;;;23.30;61.70;24.10;101219.00;;;;5011390;28;20180;-51
2023/08/11 01:44:50;;;;;;;4.60;3.10;;;23.30;61.80;24.10;101234.00;;;;5011253;28;20265;-51
2023/08/11 01:47:16;;;;;;;7.27;3.33;;;23.20;61.70;24.00;101223.00;;;;4993805;28;20179;-51
2023/08/11 01:49:42;;;;;;;4.97;3.20;;;23.20;61.80;24.00;101214.00;;;;5009524;28;20215;-51
2023/08/11 01:52:08;;;;;;;4.43;3.35;;;23.20;61.90;24.00;101222.00;;;;5011268;28;20230;-51
2023/08/11 01:54:34;;;;;;;3.50;3.00;;;23.20;61.90;24.00;101219.00;;;;5011413;28;20640;-51
2023/08/11 01:57:00;;;;;;;3.20;2.90;;;23.20;61.90;24.00;101207.00;;;;4980311;28;20211;-52
2023/08/11 01:59:25;;;;;;;4.60;3.23;;;23.20;61.90;24.00;101203.00;;;;5016284;28;20203;-51
2023/08/11 02:01:52;;;;;;;3.20;2.90;;;23.20;61.90;23.90;101202.00;;;;5010894;28;20263;-51
2023/08/11 02:04:17;;;;;;;5.33;3.20;;;23.20;61.90;23.90;101190.00;;;;5010086;28;20183;-51
2023/08/11 02:06:45;;;;;;;3.20;2.90;;;23.20;61.90;23.90;101201.00;;;;5010742;28;20176;-51
2023/08/11 02:09:12;;;;;;;3.60;2.90;;;23.20;61.90;23.90;101193.00;;;;5010538;28;20674;-51
2023/08/11 02:11:38;;;;;;;4.10;2.93;;;23.20;61.90;23.80;101191.00;;;;5013281;28;20218;-51
2023/08/11 02:14:05;;;;;;;5.47;3.10;;;23.10;61.80;23.80;101191.00;;;;5016405;28;20241;-51
2023/08/11 02:16:31;;;;;;;3.43;2.73;;;23.10;61.80;23.80;101188.00;;;;5010394;28;20172;-51
2023/08/11 02:18:57;;;;;;;3.27;2.80;;;23.10;61.80;23.80;101191.00;;;;5010074;28;20210;-51
2023/08/11 02:21:23;;;;;;;2.93;2.73;;;23.10;61.90;23.80;101186.00;;;;5010020;28;20581;-51
2023/08/11 02:23:48;;;;;;;3.47;3.07;;;23.10;62.10;23.70;101195.00;;;;5010244;28;20182;-51
2023/08/11 02:26:15;;;;;;;4.00;2.93;;;23.00;62.00;23.70;101185.00;;;;5010455;28;20237;-50
2023/08/11 02:28:41;;;;;;;4.10;2.97;;;23.10;61.90;23.70;101187.00;;;;5010273;28;20189;-51
2023/08/11 02:31:08;;;;;;;3.43;3.03;;;23.00;62.10;23.70;101185.00;;;;5010144;28;20700;-51
2023/08/11 02:33:34;;;;;;;4.20;3.00;;;23.00;62.00;23.70;101186.00;;;;5010046;28;20235;-51
2023/08/11 02:36:00;;;;;;;4.63;3.10;;;23.00;61.70;23.70;101190.00;;;;5010367;28;20275;-51
2023/08/11 02:38:26;;;;;;;3.13;2.80;;;23.00;61.50;23.60;101183.00;;;;5010031;28;20651;-51
2023/08/11 02:40:51;;;;;;;3.63;2.90;;;23.10;61.70;23.60;101184.00;;;;5009602;28;20725;-51
2023/08/11 02:43:17;;;;;;;3.13;2.93;;;22.90;61.40;23.60;101177.00;;;;5009976;28;20195;-51
2023/08/11 02:45:43;;;;;;;4.23;2.93;;;23.00;61.40;23.60;101182.00;;;;5009843;28;20186;-51
2023/08/11 02:48:09;;;;;;;3.20;2.90;;;22.90;61.30;23.60;101186.00;;;;5010050;28;20190;-53
2023/08/11 02:50:34;;;;;;;3.60;2.70;;;23.00;61.40;23.60;101179.00;;;;5008165;28;20747;-50
2023/08/11 02:53:00;;;;;;;3.77;2.77;;;22.90;61.30;23.50;101184.00;;;;5009766;28;20250;-50
2023/08/11 02:55:26;;;;;;;3.37;2.90;;;22.90;61.10;23.50;101180.00;;;;5009782;28;20654;-51
2023/08/11 02:57:51;;;;;;;3.83;2.80;;;22.90;61.20;23.50;101187.00;;;;5009527;28;20199;-50
2023/08/11 03:00:18;;;;;;;3.00;2.80;;;22.80;61.10;23.50;101181.00;;;;5009283;28;20216;-51
2023/08/11 03:02:47;;;;;;;3.17;2.73;;;22.80;61.20;23.50;101186.00;;;;5010861;28;20195;-50
2023/08/11 03:05:14;;;;;;;2.70;2.50;;;22.80;61.20;23.50;101174.00;;;;5010816;28;20190;-50
2023/08/11 03:07:40;;;;;;;2.87;2.67;;;22.80;61.20;23.40;101178.00;;;;5010867;28;20503;-51
2023/08/11 03:10:07;;;;;;;6.17;2.67;;;22.80;61.00;23.40;101175.00;;;;5010537;28;20622;-50
2023/08/11 03:12:33;;;;;;;3.00;2.70;;;22.80;60.90;23.40;101173.00;;;;5010488;28;20332;-51
2023/08/11 03:14:58;;;;;;;3.97;2.40;;;22.70;60.50;23.40;101168.00;;;;5010687;28;20175;-51
2023/08/11 03:17:24;;;;;;;2.83;2.63;;;22.70;60.20;23.40;101171.00;;;;5010406;28;20192;-51
2023/08/11 03:19:50;;;;;;;3.10;2.40;;;22.70;60.10;23.30;101167.00;;;;5010155;28;20568;-50
2023/08/11 03:22:17;;;;;;;2.57;2.37;;;22.70;59.90;23.30;101166.00;;;;5010207;28;20179;-51
2023/08/11 03:24:47;;;;;;;3.20;2.50;;;22.70;60.00;23.30;101162.00;;;;5010063;28;20230;-51
2023/08/11 03:27:12;;;;;;;2.80;2.60;;;22.70;59.90;23.30;101154.00;;;;5010151;28;20183;-51
2023/08/11 03:29:38;;;;;;;3.20;2.47;;;22.70;59.90;23.30;101169.00;;;;5009925;28;20179;-50
2023/08/11 03:32:04;;;;;;;2.53;2.33;;;22.70;59.90;23.20;101171.00;;;;5004742;28;20265;-51
2023/08/11 03:34:31;;;;;;;4.13;2.40;;;22.60;60.20;23.20;101164.00;;;;5005236;28;20175;-50
2023/08/11 03:36:57;;;;;;;3.30;2.50;;;22.60;60.00;23.20;101088.00;;;;5009489;28;20206;-50
2023/08/11 03:39:23;;;;;;;3.73;2.50;;;22.60;59.90;23.10;101151.00;;;;5009572;28;20187;-51
2023/08/11 03:41:49;;;;;;;3.10;2.43;;;22.50;59.80;23.10;101160.00;;;;4991728;28;20767;-51
2023/08/11 03:44:16;;;;;;;3.60;2.63;;;22.60;60.60;23.10;101163.00;;;;5008774;28;20175;-51
2023/08/11 03:46:41;;;;;;;3.53;2.43;;;22.50;59.80;23.00;101159.00;;;;5009595;28;20188;-51
2023/08/11 03:49:07;;;;;;;2.83;2.57;;;22.50;59.80;23.10;101161.00;;;;5009833;28;20183;-51
2023/08/11 03:51:33;;;;;;;2.80;2.50;;;22.50;59.70;23.10;101176.00;;;;5009252;28;20203;-51
2023/08/11 03:54:02;;;;;;;3.53;2.70;;;22.50;59.70;23.00;101181.00;;;;5009404;28;20176;-51
2023/08/11 03:56:30;;;;;;;2.83;2.60;;;22.50;59.70;23.00;101180.00;;;;5009185;28;20191;-51
2023/08/11 03:58:56;;;;;;;2.90;2.60;;;22.50;59.60;23.00;101181.00;;;;5011526;28;20203;-50
2023/08/11 04:01:22;;;;;;;2.83;2.60;;;22.50;59.70;23.00;101184.00;;;;5017471;28;20211;-51
2023/08/11 04:03:48;;;;;;;2.80;2.50;;;22.50;59.60;23.00;101185.00;;;;5009756;28;20183;-52
2023/08/11 04:06:14;;;;;;;2.80;2.30;;;22.40;59.60;23.00;101191.00;;;;5009266;28;20559;-52
2023/08/11 04:08:40;;;;;;;3.37;2.43;;;22.40;59.80;23.00;101177.00;;;;5009357;28;20310;-55
2023/08/11 04:11:07;;;;;;;2.90;2.60;;;22.30;59.60;22.90;101182.00;;;;5009097;28;20285;-51
2023/08/11 04:13:32;;;;;;;3.90;2.60;;;22.40;59.90;22.90;101179.00;;;;5012690;28;20171;-51
2023/08/11 04:15:59;;;;;;;2.80;2.60;;;22.40;59.90;22.90;101180.00;;;;5017930;28;20547;-51
2023/08/11 04:18:25;;;;;;;3.50;2.40;;;22.40;60.00;22.90;101180.00;;;;5010186;28;20203;-51
2023/08/11 04:20:50;;;;;;;2.47;2.27;;;22.40;60.10;22.90;101184.00;;;;5008763;28;20731;-50
2023/08/11 04:23:16;;;;;;;3.00;2.50;;;22.30;60.10;22.90;101187.00;;;;5008896;28;20450;-50
2023/08/11 04:25:43;;;;;;;2.50;2.30;;;22.30;60.00;22.90;101184.00;;;;5008251;28;20234;-50
2023/08/11 04:28:09;;;;;;;2.83;2.60;;;22.30;60.00;22.90;101176.00;;;;5008913;28;20262;-51
2023/08/11 04:30:35;;;;;;;2.73;2.53;;;22.30;60.30;22.80;101175.00;;;;5007897;28;20557;-50
2023/08/11 04:33:01;;;;;;;2.50;2.27;;;22.30;60.50;22.90;101181.00;;;;5008301;28;20190;-50
2023/08/11 04:35:27;;;;;;;3.80;2.53;;;22.30;60.30;22.80;101178.00;;;;5010190;28;21465;-50
2023/08/11 04:37:53;;;;;;;3.27;2.40;;;22.30;60.20;22.80;101183.00;;;;5011314;28;20223;-50
2023/08/11 04:40:19;;;;;;;4.13;2.50;;;22.30;60.20;22.80;101188.00;;;;5012132;28;20294;-50
2023/08/11 04:42:46;;;;;;;2.70;2.50;;;22.30;61.10;22.80;101177.00;;;;5012651;28;20654;-50
2023/08/11 04:45:14;;;;;;;2.47;2.27;;;22.20;60.20;22.80;101183.00;;;;5010875;28;20176;-51
2023/08/11 04:47:40;;;;;;;3.23;2.63;;;22.20;60.60;22.80;101184.00;;;;5012965;28;20258;-51
2023/08/11 04:50:08;;;;;;;3.37;2.60;;;22.20;60.70;22.70;101180.00;;;;5012504;28;20263;-51
2023/08/11 04:52:34;;;;;;;3.00;2.70;;;22.20;60.80;22.70;101190.00;;;;5012597;28;20672;-50
2023/08/11 04:54:59;;;;;;;4.70;3.10;;;22.20;60.50;22.70;101182.00;;;;5012251;28;20178;-49
2023/08/11 04:57:25;;;;;;;4.23;3.50;;;22.20;60.30;22.70;101183.00;;;;5012715;28;20564;-51
2023/08/11 04:59:51;;;;;;;4.23;2.93;;;22.20;60.30;22.70;101186.00;;;;5011936;28;20200;-51
2023/08/11 05:02:16;;;;;;;3.40;3.00;;;22.20;60.10;22.70;101190.00;;;;5011118;28;20480;-51
2023/08/11 05:04:42;;;;;;;5.07;2.77;;;22.20;60.30;22.70;101183.00;;;;5012129;28;20251;-51
2023/08/11 05:07:08;;;;;;;3.07;2.67;;;22.10;60.40;22.70;101178.00;;;;5012231;28;20187;-51
2023/08/11 05:09:38;;;;;;;3.00;2.60;;;22.10;60.30;22.70;101176.00;;;;5010932;28;20541;-50
2023/08/11 05:12:04;;;;;;;2.90;2.43;;;22.10;60.40;22.60;101181.00;;;;5010773;28;20270;-55
2023/08/11 05:14:30;;;;;;;4.07;2.63;;;22.10;60.30;22.60;101186.00;;;;5012056;28;20188;-52
2023/08/11 05:16:56;;;;;;;2.80;2.60;;;22.10;60.40;22.60;101191.00;;;;5010199;28;20233;-52
2023/08/11 05:19:22;;;;;;;2.60;2.40;;;22.10;60.30;22.60;101195.00;;;;5011735;28;20611;-50
2023/08/11 05:21:47;;;;;;;2.80;2.40;;;22.10;60.30;22.60;101188.00;;;;5011588;28;20607;-51
2023/08/11 05:24:13;;;;;;;2.70;2.40;;;22.10;60.30;22.60;101200.00;;;;5012115;28;20564;-51
2023/08/11 05:26:39;;;;;;;3.00;2.70;;;22.10;60.50;22.60;101194.00;;;;5012064;28;20180;-50
2023/08/11 05:29:05;;;;;;;2.47;2.27;;;22.00;60.50;22.50;101196.00;;;;5012389;28;20211;-50
2023/08/11 05:31:31;;;;;;;2.70;2.50;;;22.10;60.70;22.50;101197.00;;;;5011888;28;20221;-50
2023/08/11 05:33:57;;;;;;;3.00;2.47;;;22.00;60.40;22.50;101196.00;;;;5012076;28;20666;-50
2023/08/11 05:36:23;;;;;;;3.27;2.60;;;22.00;60.60;22.50;101205.00;;;;5011595;28;20207;-50
2023/08/11 05:38:48;;;;;;;3.57;2.57;;;22.00;60.50;22.50;101214.00;;;;5011846;28;20214;-52
2023/08/11 05:41:14;;;;;;;3.57;2.67;;;22.00;60.70;22.50;101212.00;;;;5011462;28;20266;-50
2023/08/11 05:43:40;;;;;;;2.97;2.50;;;22.00;60.70;22.50;101216.00;;;;5011676;28;20304;-50
2023/08/11 05:46:07;;;;;;;3.20;2.60;;;22.00;60.90;22.50;101217.00;;;;5010713;28;20211;-50
2023/08/11 05:48:33;;;;;;;3.60;2.90;;;21.90;61.00;22.50;101212.00;;;;5011725;28;20768;-51
2023/08/11 05:50:59;;;;;;;3.03;2.60;;;22.00;61.30;22.50;101214.00;;;;5011028;28;20206;-50
2023/08/11 05:53:25;;;;;;;2.80;2.50;;;21.90;61.40;22.50;101201.00;;;;5011552;28;20176;-50
2023/08/11 05:55:51;;;;;;;2.70;2.50;;;21.90;61.60;22.40;101203.00;;;;5011346;28;20187;-52
2023/08/11 05:58:16;;;;;;;2.73;2.50;;;21.90;61.70;22.40;101204.00;;;;5010354;28;20195;-50
2023/08/11 06:00:42;;;;;;;2.77;2.53;;;21.90;61.90;22.40;101201.00;;;;5017360;28;20569;-49
2023/08/11 06:03:08;;;;;;;2.70;2.50;;;22.00;62.10;22.40;101202.00;;;;5015761;28;20182;-49
2023/08/11 06:05:33;;;;;;;2.93;2.63;;;21.90;61.90;22.40;101199.00;;;;5010322;28;20191;-49
2023/08/11 06:07:59;;;;;;;2.50;2.30;;;21.90;61.90;22.40;101188.00;;;;5011581;28;20195;-50
2023/08/11 06:10:26;;;;;;;2.50;2.30;;;21.90;62.70;22.40;101198.00;;;;5011271;28;20685;-50
2023/08/11 06:12:52;;;;;;;3.00;2.70;;;21.90;61.70;22.40;101187.00;;;;5011323;28;20272;-50
2023/08/11 06:15:18;;;;;;;2.93;2.40;;;21.90;61.90;22.40;101190.00;;;;5015421;28;20229;-50
2023/08/11 06:17:49;;;;;;;2.63;2.43;;;21.90;62.00;22.40;101193.00;;;;5016435;28;20661;-50
2023/08/11 06:20:18;;;;;;;3.37;2.80;;;21.90;62.00;22.40;101184.00;;;;5010929;28;20293;-50
2023/08/11 06:22:48;;;;;;;3.00;2.70;;;21.90;62.00;22.30;101182.00;;;;5010004;28;20176;-49
2023/08/11 06:25:16;;;;;;;2.73;2.50;;;21.90;62.00;22.30;101190.00;;;;5010836;28;20542;-49
2023/08/11 06:27:42;;;;;;;4.03;2.63;;;21.90;62.20;22.30;101191.00;;;;5010932;28;20167;-49
2023/08/11 06:30:09;;;;;;;2.70;2.50;;;21.80;62.30;22.30;101189.00;;;;5009845;28;20190;-49
2023/08/11 06:32:36;;;;;;;3.00;2.70;;;21.80;62.40;22.30;101187.00;;;;5010048;28;20257;-49
2023/08/11 06:35:03;;;;;;;3.00;2.67;;;21.80;62.70;22.30;101195.00;;;;5010524;28;20542;-51
2023/08/11 06:37:28;;;;;;;3.37;2.50;;;21.80;62.70;22.30;101190.00;;;;5010780;28;20185;-51
2023/08/11 06:39:58;;;;;;;2.93;2.50;;;21.80;62.80;22.30;101191.00;;;;5010456;28;20211;-50
2023/08/11 06:42:24;;;;;;;3.03;2.50;;;21.80;62.90;22.30;101189.00;;;;5009098;28;20199;-51
2023/08/11 06:44:50;;;;;;;2.80;2.60;;;21.80;62.70;22.30;101186.00;;;;5004220;28;20255;-51
2023/08/11 06:47:16;;;;;;;2.97;2.70;;;21.80;62.70;22.30;101197.00;;;;5007689;28;20278;-51
2023/08/11 06:49:41;;;;;;;3.00;2.70;;;21.80;62.80;22.30;101189.00;;;;5009720;28;20830;-51
2023/08/11 06:52:07;;;;;;;3.00;2.70;;;21.70;62.80;22.30;101194.00;;;;5009418;28;20620;-51
2023/08/11 06:54:34;;;;;;;3.10;2.60;;;21.70;62.90;22.30;101201.00;;;;5010650;28;20199;-51
2023/08/11 06:57:02;;;;;;;4.03;2.67;;;21.70;63.00;22.30;101200.00;;;;5010087;28;20182;-51
2023/08/11 06:59:27;;;;;;;3.60;2.90;;;21.80;62.90;22.30;101198.00;;;;5009466;28;20214;-50
2023/08/11 07:01:53;;;;;;;3.40;2.80;;;21.80;62.80;22.30;101192.00;;;;5010079;28;20592;-49
2023/08/11 07:04:20;;;;;;;3.80;2.73;;;21.70;62.80;22.30;101195.00;;;;5009322;28;20179;-51
2023/08/11 07:06:46;;;;;;;3.30;2.77;;;21.70;62.90;22.30;101182.00;;;;5010502;28;20190;-50
2023/08/11 07:09:12;;;;;;;3.20;2.90;;;21.70;63.10;22.20;101197.00;;;;5008690;28;20176;-51
2023/08/11 07:11:38;;;;;;;2.90;2.60;;;21.70;63.10;22.30;101193.00;;;;5010505;28;20253;-51
2023/08/11 07:14:03;;;;;;;3.40;2.60;;;21.60;63.00;22.20;101193.00;;;;5010826;28;20587;-51
2023/08/11 07:16:29;;;;;;;3.80;2.83;;;21.60;63.00;22.20;101197.00;;;;5010507;28;20179;-51
2023/08/11 07:18:55;;;;;;;3.27;2.70;;;21.70;63.10;22.30;101199.00;;;;5011940;28;20295;-51
2023/08/11 07:21:21;;;;;;;3.10;2.63;;;21.70;63.10;22.30;101199.00;;;;5013167;28;20254;-52
2023/08/11 07:23:47;;;;;;;2.80;2.60;;;21.80;63.10;22.30;101198.00;;;;5009434;28;20180;-51
2023/08/11 07:26:12;;;;;;;3.70;2.73;;;21.80;63.10;22.30;101191.00;;;;5008280;28;20180;-52
2023/08/11 07:28:38;;;;;;;3.37;2.90;;;21.90;63.20;22.40;101198.00;;;;5007784;28;20673;-51
2023/08/11 07:31:04;;;;;;;3.93;2.70;;;21.90;63.10;22.40;101184.00;;;;5009393;28;20235;-51
2023/08/11 07:33:30;;;;;;;3.20;2.90;;;21.90;63.20;22.40;101198.00;;;;5008632;28;20184;-51
2023/08/11 07:35:55;;;;;;;4.53;2.87;;;21.90;63.10;22.40;101197.00;;;;5009773;28;20707;-51
2023/08/11 07:38:21;;;;;;;3.03;2.70;;;21.90;63.20;22.50;101203.00;;;;5009093;28;20191;-51
2023/08/11 07:40:47;;;;;;;3.07;2.83;;;22.00;63.40;22.50;101204.00;;;;5009515;28;20207;-51
2023/08/11 07:43:14;;;;;;;3.70;2.80;;;21.90;63.50;22.50;101198.00;;;;5009608;28;20685;-51
2023/08/11 07:45:39;;;;;;;3.20;2.90;;;22.00;63.50;22.50;101204.00;;;;5009751;28;20608;-51
2023/08/11 07:48:06;;;;;;;4.33;3.00;;;22.00;63.60;22.60;101181.00;;;;5009809;28;20215;-51
2023/08/11 07:50:34;;;;;;;3.87;3.03;;;21.90;63.60;22.60;101185.00;;;;4999093;28;20199;-51
2023/08/11 07:53:00;;;;;;;3.40;3.10;;;22.00;63.70;22.60;101199.00;;;;5007396;28;20222;-51
2023/08/11 07:55:26;;;;;;;4.63;2.83;;;22.00;63.80;22.60;101204.00;;;;5008119;28;20215;-51
2023/08/11 07:57:51;;;;;;;3.20;2.90;;;22.00;64.30;22.70;101206.00;;;;5008094;28;20304;-51
2023/08/11 08:00:19;;;;;;;3.60;2.90;;;22.00;64.30;22.70;101194.00;;;;5015501;28;20792;-51
2023/08/11 08:02:45;;;;;;;5.50;3.33;;;22.00;64.70;22.70;101198.00;;;;5016245;28;20717;-51
2023/08/11 08:05:11;;;;;;;6.00;3.30;;;22.10;65.20;22.70;101201.00;;;;5013101;28;20182;-51
2023/08/11 08:07:37;;;;;;;4.87;3.37;;;22.10;65.10;22.80;101197.00;;;;5011253;28;20168;-51
2023/08/11 08:10:08;;;;;;;5.80;3.13;;;22.10;65.40;22.80;101202.00;;;;5005405;28;20199;-51
2023/08/11 08:12:35;;;;;;;6.13;3.07;;;22.20;65.20;22.80;101219.00;;;;5008508;28;20211;-51
2023/08/11 08:15:04;;;;;;;3.23;2.83;;;22.20;65.20;22.80;101214.00;;;;4996749;28;20760;-51
2023/08/11 08:17:31;;;;;;;3.93;3.10;;;22.20;64.70;22.80;101209.00;;;;5004310;28;20714;-51
2023/08/11 08:19:57;;;;;;;3.47;3.17;;;22.20;64.50;22.80;101207.00;;;;5008465;28;20252;-51
2023/08/11 08:22:23;;;;;;;3.40;3.10;;;22.20;64.70;22.80;101213.00;;;;5006780;28;20226;-51
2023/08/11 08:24:50;;;;;;;3.50;3.20;;;22.20;65.10;22.90;101218.00;;;;5007784;28;20650;-51
2023/08/11 08:27:18;;;;;;;3.70;3.20;;;22.20;64.90;22.90;101201.00;;;;5008008;28;20193;-51
2023/08/11 08:29:44;;;;;;;3.20;2.90;;;22.20;65.80;22.90;101216.00;;;;5012127;28;20242;-51
2023/08/11 08:32:09;;;;;;;3.23;2.93;;;22.20;65.00;22.90;101210.00;;;;5013468;28;20690;-51
2023/08/11 08:34:35;;;;;;;4.47;2.90;;;22.20;64.50;22.90;101220.00;;;;5016648;28;20188;-51
2023/08/11 08:37:01;;;;;;;3.90;2.93;;;22.20;64.10;22.90;101222.00;;;;5008760;28;20202;-51
2023/08/11 08:39:27;;;;;;;3.47;3.07;;;22.20;64.40;22.90;101217.00;;;;5007738;28;20538;-51
2023/08/11 08:41:52;;;;;;;3.40;3.03;;;22.30;64.80;22.90;101219.00;;;;5007636;28;20230;-52
2023/08/11 08:44:18;;;;;;;3.60;3.10;;;22.30;65.10;23.00;101210.00;;;;4999079;28;20210;-51
2023/08/11 08:46:44;;;;;;;3.37;3.07;;;22.30;65.30;23.00;101189.00;;;;5007796;28;20183;-51
2023/08/11 08:49:25;;;;;;;4.77;3.17;;;22.30;65.10;23.00;101205.00;;;;4990302;28;20180;-51
2023/08/11 08:51:51;;;;;;;3.63;3.20;;;22.30;65.20;23.00;101205.00;;;;5007270;28;20258;-51
2023/08/11 08:54:17;;;;;;;3.73;3.20;;;22.30;64.90;23.00;101202.00;;;;5005948;28;20282;-51
2023/08/11 08:56:42;;;;;;;3.07;2.87;;;22.40;65.10;23.00;101208.00;;;;5005823;28;20627;-51
2023/08/11 08:59:08;;;;;;;3.10;2.80;;;22.30;65.20;23.10;101218.00;;;;5006442;28;20257;-51
2023/08/11 09:01:35;;;;;;;3.30;3.00;;;22.40;65.60;23.10;101220.00;;;;5006786;28;20257;-50
2023/08/11 09:04:00;;;;;;;4.57;3.10;;;22.40;65.50;23.10;101215.00;;;;5007057;28;20188;-52
2023/08/11 09:06:26;;;;;;;4.53;3.00;;;22.50;65.70;23.10;101212.00;;;;5006510;28;20716;-52
2023/08/11 09:08:52;;;;;;;3.10;2.80;;;22.50;65.10;23.10;101212.00;;;;5006989;28;20180;-50
2023/08/11 09:11:19;;;;;;;3.57;3.10;;;22.50;64.30;23.10;101217.00;;;;5005351;28;20302;-52
2023/08/11 09:13:45;;;;;;;3.20;2.90;;;22.50;64.70;23.10;101207.00;;;;5006982;28;20271;-52
2023/08/11 09:16:12;;;;;;;4.80;3.30;;;22.60;64.70;23.10;101206.00;;;;5006905;28;20680;-52
2023/08/11 09:18:39;;;;;;;4.57;3.40;;;22.60;64.30;23.10;101220.00;;;;5006413;28;20592;-52
2023/08/11 09:21:05;;;;;;;4.47;3.30;;;22.60;64.80;23.20;101196.00;;;;5008745;28;20199;-51
2023/08/11 09:23:32;;;;;;;9.70;4.50;;;22.60;64.90;23.20;101202.00;;;;5009577;28;20211;-49
2023/08/11 09:25:58;;;;;;;7.17;3.83;;;22.60;65.50;23.20;101202.00;;;;5009055;28;20196;-52
2023/08/11 09:28:24;;;;;;;4.57;3.20;;;22.70;64.90;23.20;101206.00;;;;5009905;28;20270;-52
2023/08/11 09:30:50;;;;;;;6.27;3.43;;;22.70;64.50;23.30;101208.00;;;;4992141;28;20233;-52
2023/08/11 09:33:17;;;;;;;4.70;3.00;;;22.70;64.60;23.30;101200.00;;;;5001366;28;20581;-52
2023/08/11 09:35:43;;;;;;;3.60;3.10;;;22.70;65.50;23.30;101191.00;;;;5011311;28;20569;-52
2023/08/11 09:38:09;;;;;;;3.63;2.97;;;22.70;65.70;23.30;101199.00;;;;5009615;28;20207;-51
2023/08/11 09:40:34;;;;;;;3.40;3.10;;;22.80;65.20;23.30;101202.00;;;;4993399;28;20196;-52
2023/08/11 09:43:00;;;;;;;3.63;3.33;;;22.80;65.20;23.40;101203.00;;;;4993562;28;20237;-52
2023/08/11 09:45:26;;;;;;;3.67;3.00;;;22.80;64.60;23.40;101202.00;;;;5010649;28;20183;-52
2023/08/11 09:47:51;;;;;;;3.30;3.03;;;22.90;64.50;23.40;101192.00;;;;5010773;28;20172;-52
2023/08/11 09:50:17;;;;;;;3.40;3.10;;;22.90;64.60;23.40;101195.00;;;;5010123;28;20694;-52
2023/08/11 09:52:43;;;;;;;3.20;2.90;;;22.80;64.70;23.50;101190.00;;;;5010799;28;20259;-52
2023/08/11 09:55:10;;;;;;;3.60;2.97;;;22.90;65.80;23.50;101195.00;;;;5010741;28;20180;-52
2023/08/11 09:57:37;;;;;;;3.60;3.20;;;23.00;65.00;23.50;101203.00;;;;5010996;28;20180;-52
2023/08/11 10:00:04;;;;;;;4.20;3.20;;;23.00;64.30;23.50;101200.00;;;;5009895;28;20214;-52
2023/08/11 10:02:31;;;;;;;4.60;3.20;;;23.00;62.70;23.60;101195.00;;;;5010384;28;20226;-51
2023/08/11 10:05:04;;;;;;;3.97;2.93;;;23.00;62.70;23.60;101144.00;;;;5005200;28;20465;-51
2023/08/11 10:07:41;;;;;;;4.23;3.17;;;23.00;64.10;23.60;101173.00;;;;5016843;28;20163;-52
2023/08/11 10:10:28;;;;;;;4.10;3.03;;;23.10;63.80;23.60;101181.00;;;;5010329;28;20258;-51
2023/08/11 10:13:08;;;;;;;5.13;3.27;;;23.20;61.90;23.70;101183.00;;;;5008968;28;20249;-51
2023/08/11 10:15:34;;;;;;;3.60;3.30;;;23.20;63.30;23.70;101176.00;;;;5003226;28;20207;-51
2023/08/11 10:18:01;;;;;;;3.77;3.37;;;23.20;63.60;23.70;101173.00;;;;4992791;28;20664;-51
2023/08/11 10:20:27;;;;;;;3.43;3.13;;;23.20;63.70;23.70;101168.00;;;;5010233;28;20985;-51
2023/08/11 10:22:53;;;;;;;4.40;3.57;;;23.20;63.70;23.80;101177.00;;;;5015712;28;20418;-51
2023/08/11 10:25:19;;;;;;;4.10;3.40;;;23.20;64.40;23.80;101172.00;;;;4978187;28;20642;-51
2023/08/11 10:27:44;;;;;;;3.37;3.00;;;23.20;64.10;23.80;101164.00;;;;5009982;28;20172;-51
2023/08/11 10:30:12;;;;;;;4.10;3.70;;;23.30;63.90;23.90;101171.00;;;;4992094;28;20175;-51
2023/08/11 10:32:38;;;;;;;4.00;3.10;;;23.30;63.70;23.90;101169.00;;;;5008526;28;20697;-51
2023/08/11 10:35:07;;;;;;;3.47;3.17;;;23.40;62.10;23.90;101166.00;;;;5008478;28;20180;-51
2023/08/11 10:37:32;;;;;;;3.77;3.30;;;23.40;61.50;23.90;101165.00;;;;5009374;28;20180;-52
2023/08/11 10:40:06;;;;;;;4.20;3.40;;;23.40;62.10;24.00;101167.00;;;;5008220;28;20261;-51
2023/08/11 10:42:32;;;;;;;4.77;3.50;;;23.40;63.50;24.00;101167.00;;;;5007758;28;20569;-51
2023/08/11 10:45:12;;;;;;;3.70;3.20;;;23.40;64.00;24.00;101167.00;;;;5001811;28;20192;-51